sensor_id;sensor_type;location;lat;lon;timestamp;P1;durP1;ratioP1;P2;durP2;ratioP2
49572;SDS011;35476;52.466;13.364;2022-11-15T00:00:19;87.37;;;51.47;;
49572;SDS011;35476;52.466;13.364;2022-11-15T00:02:44;82.93;;;50.50;;
49572;SDS011;35476;52.466;13.364;2022-11-15T00:05:09;89.67;;;53.60;;
49572;SDS011;35476;52.466;13.364;2022-11-15T00:07:34;95.20;;;50.23;;
49572;SDS011;35476;52.466;13.364;2022-11-15T00:10:00;93.93;;;50.90;;
49572;SDS011;35476;52.466;13.364;2022-11-15T00:12:26;90.57;;;51.15;;
49572;SDS011;35476;52.466;13.364;2022-11-15T00:14:51;94.80;;;52.30;;
49572;SDS011;35476;52.466;13.364;2022-11-15T00:17:16;89.83;;;50.13;;
49572;SDS011;35476;52.466;13.364;2022-11-15T00:19:42;101.97;;;57.20;;
49572;SDS011;35476;52.466;13.364;2022-11-15T00:22:07;90.97;;;52.47;;
49572;SDS011;35476;52.466;13.364;2022-11-15T00:24:32;95.97;;;54.47;;
49572;SDS011;35476;52.466;13.364;2022-11-15T00:26:57;91.80;;;52.07;;
49572;SDS011;35476;52.466;13.364;2022-11-15T00:29:22;95.63;;;54.67;;
49572;SDS011;35476;52.466;13.364;2022-11-15T00:31:47;105.67;;;56.90;;
49572;SDS011;35476;52.466;13.364;2022-11-15T00:34:13;87.20;;;52.50;;
49572;SDS011;35476;52.466;13.364;2022-11-15T00:36:38;93.63;;;51.92;;
49572;SDS011;35476;52.466;13.364;2022-11-15T00:39:04;93.00;;;51.93;;
49572;SDS011;35476;52.466;13.364;2022-11-15T00:41:30;91.55;;;55.03;;
49572;SDS011;35476;52.466;13.364;2022-11-15T00:43:55;92.63;;;52.13;;
49572;SDS011;35476;52.466;13.364;2022-11-15T00:46:21;91.78;;;53.50;;
49572;SDS011;35476;52.466;13.364;2022-11-15T00:48:46;99.03;;;55.28;;
49572;SDS011;35476;52.466;13.364;2022-11-15T00:51:11;90.67;;;52.67;;
49572;SDS011;35476;52.466;13.364;2022-11-15T00:53:36;99.30;;;53.90;;
49572;SDS011;35476;52.466;13.364;2022-11-15T00:56:01;92.60;;;53.60;;
49572;SDS011;35476;52.466;13.364;2022-11-15T00:58:27;89.70;;;53.83;;
49572;SDS011;35476;52.466;13.364;2022-11-15T01:00:52;93.55;;;54.63;;
49572;SDS011;35476;52.466;13.364;2022-11-15T01:03:17;91.13;;;54.70;;
49572;SDS011;35476;52.466;13.364;2022-11-15T01:05:42;90.82;;;54.17;;
49572;SDS011;35476;52.466;13.364;2022-11-15T01:08:14;89.27;;;53.63;;
49572;SDS011;35476;52.466;13.364;2022-11-15T01:10:39;91.00;;;52.60;;
49572;SDS011;35476;52.466;13.364;2022-11-15T01:13:05;101.13;;;54.35;;
49572;SDS011;35476;52.466;13.364;2022-11-15T01:15:30;83.80;;;53.13;;
49572;SDS011;35476;52.466;13.364;2022-11-15T01:17:55;88.25;;;53.42;;
49572;SDS011;35476;52.466;13.364;2022-11-15T01:20:20;93.43;;;53.83;;
49572;SDS011;35476;52.466;13.364;2022-11-15T01:22:46;90.15;;;50.80;;
49572;SDS011;35476;52.466;13.364;2022-11-15T01:25:11;92.00;;;53.40;;
49572;SDS011;35476;52.466;13.364;2022-11-15T01:27:36;92.70;;;53.00;;
49572;SDS011;35476;52.466;13.364;2022-11-15T01:30:02;90.93;;;53.97;;
49572;SDS011;35476;52.466;13.364;2022-11-15T01:32:27;84.38;;;52.47;;
49572;SDS011;35476;52.466;13.364;2022-11-15T01:34:52;87.70;;;52.70;;
49572;SDS011;35476;52.466;13.364;2022-11-15T01:37:17;109.30;;;56.93;;
49572;SDS011;35476;52.466;13.364;2022-11-15T01:39:43;83.60;;;50.50;;
49572;SDS011;35476;52.466;13.364;2022-11-15T01:42:12;97.63;;;54.80;;
49572;SDS011;35476;52.466;13.364;2022-11-15T01:44:39;96.82;;;52.80;;
49572;SDS011;35476;52.466;13.364;2022-11-15T01:50:07;94.57;;;54.33;;
49572;SDS011;35476;52.466;13.364;2022-11-15T01:52:33;95.30;;;54.33;;
49572;SDS011;35476;52.466;13.364;2022-11-15T01:55:18;98.95;;;59.80;;
49572;SDS011;35476;52.466;13.364;2022-11-15T01:57:45;103.85;;;54.67;;
49572;SDS011;35476;52.466;13.364;2022-11-15T02:00:11;106.75;;;53.50;;
49572;SDS011;35476;52.466;13.364;2022-11-15T02:02:37;96.97;;;52.85;;
49572;SDS011;35476;52.466;13.364;2022-11-15T02:05:03;88.45;;;52.95;;
49572;SDS011;35476;52.466;13.364;2022-11-15T02:07:28;98.03;;;55.90;;
49572;SDS011;35476;52.466;13.364;2022-11-15T02:09:54;99.53;;;54.83;;
49572;SDS011;35476;52.466;13.364;2022-11-15T02:12:20;105.43;;;55.85;;
49572;SDS011;35476;52.466;13.364;2022-11-15T02:14:48;93.30;;;52.90;;
49572;SDS011;35476;52.466;13.364;2022-11-15T02:24:57;104.90;;;58.00;;
49572;SDS011;35476;52.466;13.364;2022-11-15T02:27:42;98.50;;;55.08;;
49572;SDS011;35476;52.466;13.364;2022-11-15T02:30:20;89.55;;;50.72;;
49572;SDS011;35476;52.466;13.364;2022-11-15T02:35:22;105.20;;;60.53;;
49572;SDS011;35476;52.466;13.364;2022-11-15T02:38:00;106.93;;;56.63;;
49572;SDS011;35476;52.466;13.364;2022-11-15T02:42:54;107.97;;;59.40;;
49572;SDS011;35476;52.466;13.364;2022-11-15T02:45:41;115.68;;;59.13;;
49572;SDS011;35476;52.466;13.364;2022-11-15T02:48:09;121.50;;;63.47;;
49572;SDS011;35476;52.466;13.364;2022-11-15T02:50:35;117.50;;;63.03;;
49572;SDS011;35476;52.466;13.364;2022-11-15T02:53:01;111.55;;;57.13;;
49572;SDS011;35476;52.466;13.364;2022-11-15T02:55:27;110.60;;;61.97;;
49572;SDS011;35476;52.466;13.364;2022-11-15T03:00:24;97.28;;;54.13;;
49572;SDS011;35476;52.466;13.364;2022-11-15T03:10:32;109.38;;;61.40;;
49572;SDS011;35476;52.466;13.364;2022-11-15T03:13:07;108.85;;;56.97;;
49572;SDS011;35476;52.466;13.364;2022-11-15T03:15:38;103.85;;;56.33;;
49572;SDS011;35476;52.466;13.364;2022-11-15T03:18:06;103.95;;;56.50;;
49572;SDS011;35476;52.466;13.364;2022-11-15T03:20:35;105.97;;;60.17;;
49572;SDS011;35476;52.466;13.364;2022-11-15T03:23:01;101.57;;;53.03;;
49572;SDS011;35476;52.466;13.364;2022-11-15T03:25:28;113.15;;;58.42;;
49572;SDS011;35476;52.466;13.364;2022-11-15T03:27:55;96.60;;;52.20;;
49572;SDS011;35476;52.466;13.364;2022-11-15T03:30:22;112.55;;;58.40;;
49572;SDS011;35476;52.466;13.364;2022-11-15T03:32:50;97.07;;;54.53;;
49572;SDS011;35476;52.466;13.364;2022-11-15T03:35:20;91.35;;;54.85;;
49572;SDS011;35476;52.466;13.364;2022-11-15T03:37:49;99.82;;;58.17;;
49572;SDS011;35476;52.466;13.364;2022-11-15T03:40:16;92.88;;;53.92;;
49572;SDS011;35476;52.466;13.364;2022-11-15T03:42:58;82.93;;;47.20;;
49572;SDS011;35476;52.466;13.364;2022-11-15T03:45:30;92.28;;;53.53;;
49572;SDS011;35476;52.466;13.364;2022-11-15T03:48:01;93.97;;;53.95;;
49572;SDS011;35476;52.466;13.364;2022-11-15T03:50:27;89.47;;;52.22;;
49572;SDS011;35476;52.466;13.364;2022-11-15T03:52:53;115.93;;;55.25;;
49572;SDS011;35476;52.466;13.364;2022-11-15T03:55:20;101.93;;;55.80;;
49572;SDS011;35476;52.466;13.364;2022-11-15T03:57:46;107.63;;;55.08;;
49572;SDS011;35476;52.466;13.364;2022-11-15T04:00:11;102.47;;;54.13;;
49572;SDS011;35476;52.466;13.364;2022-11-15T04:02:37;87.47;;;51.63;;
49572;SDS011;35476;52.466;13.364;2022-11-15T04:05:02;89.50;;;53.78;;
49572;SDS011;35476;52.466;13.364;2022-11-15T04:07:27;97.82;;;54.35;;
49572;SDS011;35476;52.466;13.364;2022-11-15T04:09:53;101.30;;;52.67;;
49572;SDS011;35476;52.466;13.364;2022-11-15T04:12:27;92.75;;;51.92;;
49572;SDS011;35476;52.466;13.364;2022-11-15T04:14:56;94.40;;;55.55;;
49572;SDS011;35476;52.466;13.364;2022-11-15T04:20:24;94.70;;;55.75;;
49572;SDS011;35476;52.466;13.364;2022-11-15T04:23:12;87.72;;;52.50;;
49572;SDS011;35476;52.466;13.364;2022-11-15T04:25:58;101.35;;;51.22;;
49572;SDS011;35476;52.466;13.364;2022-11-15T04:28:23;89.00;;;50.25;;
49572;SDS011;35476;52.466;13.364;2022-11-15T04:30:49;90.77;;;51.83;;
49572;SDS011;35476;52.466;13.364;2022-11-15T04:33:14;85.82;;;51.75;;
49572;SDS011;35476;52.466;13.364;2022-11-15T04:35:39;85.35;;;50.80;;
49572;SDS011;35476;52.466;13.364;2022-11-15T04:38:05;84.93;;;51.38;;
49572;SDS011;35476;52.466;13.364;2022-11-15T04:40:31;98.13;;;53.65;;
49572;SDS011;35476;52.466;13.364;2022-11-15T04:42:56;97.27;;;51.53;;
49572;SDS011;35476;52.466;13.364;2022-11-15T04:45:22;97.55;;;52.15;;
49572;SDS011;35476;52.466;13.364;2022-11-15T04:47:47;89.80;;;55.70;;
49572;SDS011;35476;52.466;13.364;2022-11-15T04:50:12;96.27;;;52.43;;
49572;SDS011;35476;52.466;13.364;2022-11-15T04:52:42;94.80;;;52.45;;
49572;SDS011;35476;52.466;13.364;2022-11-15T04:55:09;91.10;;;51.10;;
49572;SDS011;35476;52.466;13.364;2022-11-15T04:57:34;77.63;;;48.90;;
49572;SDS011;35476;52.466;13.364;2022-11-15T04:59:59;97.68;;;50.95;;
49572;SDS011;35476;52.466;13.364;2022-11-15T05:02:25;86.57;;;47.93;;
49572;SDS011;35476;52.466;13.364;2022-11-15T05:05:10;79.25;;;46.70;;
49572;SDS011;35476;52.466;13.364;2022-11-15T05:07:35;81.27;;;50.13;;
49572;SDS011;35476;52.466;13.364;2022-11-15T05:10:00;84.17;;;47.63;;
49572;SDS011;35476;52.466;13.364;2022-11-15T05:12:25;85.10;;;48.00;;
49572;SDS011;35476;52.466;13.364;2022-11-15T05:14:51;92.40;;;52.42;;
49572;SDS011;35476;52.466;13.364;2022-11-15T05:17:16;103.63;;;52.53;;
49572;SDS011;35476;52.466;13.364;2022-11-15T05:19:41;89.17;;;51.67;;
49572;SDS011;35476;52.466;13.364;2022-11-15T05:22:06;88.13;;;49.30;;
49572;SDS011;35476;52.466;13.364;2022-11-15T05:24:31;85.50;;;48.23;;
49572;SDS011;35476;52.466;13.364;2022-11-15T05:26:56;90.40;;;51.53;;
49572;SDS011;35476;52.466;13.364;2022-11-15T05:29:22;88.27;;;48.30;;
49572;SDS011;35476;52.466;13.364;2022-11-15T05:31:47;99.20;;;51.95;;
49572;SDS011;35476;52.466;13.364;2022-11-15T05:34:12;92.57;;;51.53;;
49572;SDS011;35476;52.466;13.364;2022-11-15T05:36:38;100.15;;;55.92;;
49572;SDS011;35476;52.466;13.364;2022-11-15T05:39:05;91.60;;;52.20;;
49572;SDS011;35476;52.466;13.364;2022-11-15T05:41:39;78.35;;;48.92;;
49572;SDS011;35476;52.466;13.364;2022-11-15T05:44:07;102.57;;;54.03;;
49572;SDS011;35476;52.466;13.364;2022-11-15T05:46:33;79.25;;;45.95;;
49572;SDS011;35476;52.466;13.364;2022-11-15T05:48:58;80.32;;;45.83;;
49572;SDS011;35476;52.466;13.364;2022-11-15T05:51:24;82.70;;;47.30;;
49572;SDS011;35476;52.466;13.364;2022-11-15T05:53:49;99.78;;;52.42;;
49572;SDS011;35476;52.466;13.364;2022-11-15T05:56:16;87.63;;;50.95;;
49572;SDS011;35476;52.466;13.364;2022-11-15T05:58:41;94.03;;;51.85;;
49572;SDS011;35476;52.466;13.364;2022-11-15T06:01:07;77.88;;;46.33;;
49572;SDS011;35476;52.466;13.364;2022-11-15T06:03:32;83.30;;;49.70;;
49572;SDS011;35476;52.466;13.364;2022-11-15T06:05:57;90.40;;;50.23;;
49572;SDS011;35476;52.466;13.364;2022-11-15T06:08:22;92.57;;;51.30;;
49572;SDS011;35476;52.466;13.364;2022-11-15T06:10:47;107.83;;;56.57;;
49572;SDS011;35476;52.466;13.364;2022-11-15T06:13:13;100.07;;;56.70;;
49572;SDS011;35476;52.466;13.364;2022-11-15T06:15:38;97.33;;;53.13;;
49572;SDS011;35476;52.466;13.364;2022-11-15T06:18:03;90.40;;;51.93;;
49572;SDS011;35476;52.466;13.364;2022-11-15T06:20:28;83.88;;;48.17;;
49572;SDS011;35476;52.466;13.364;2022-11-15T06:22:57;89.28;;;46.97;;
49572;SDS011;35476;52.466;13.364;2022-11-15T06:25:23;77.72;;;46.30;;
49572;SDS011;35476;52.466;13.364;2022-11-15T06:27:51;77.05;;;44.97;;
49572;SDS011;35476;52.466;13.364;2022-11-15T06:30:17;88.30;;;50.03;;
49572;SDS011;35476;52.466;13.364;2022-11-15T06:32:42;102.25;;;54.50;;
49572;SDS011;35476;52.466;13.364;2022-11-15T06:35:07;106.33;;;55.73;;
49572;SDS011;35476;52.466;13.364;2022-11-15T06:37:33;107.03;;;54.67;;
49572;SDS011;35476;52.466;13.364;2022-11-15T06:39:58;114.20;;;56.92;;
49572;SDS011;35476;52.466;13.364;2022-11-15T06:42:23;101.47;;;54.77;;
49572;SDS011;35476;52.466;13.364;2022-11-15T06:44:48;108.83;;;55.67;;
49572;SDS011;35476;52.466;13.364;2022-11-15T06:47:14;109.33;;;56.20;;
49572;SDS011;35476;52.466;13.364;2022-11-15T06:49:39;107.35;;;58.95;;
49572;SDS011;35476;52.466;13.364;2022-11-15T06:52:04;102.30;;;54.80;;
49572;SDS011;35476;52.466;13.364;2022-11-15T06:54:29;96.97;;;54.83;;
49572;SDS011;35476;52.466;13.364;2022-11-15T06:56:54;91.77;;;54.13;;
49572;SDS011;35476;52.466;13.364;2022-11-15T06:59:20;99.40;;;55.80;;
49572;SDS011;35476;52.466;13.364;2022-11-15T07:01:45;92.60;;;54.58;;
49572;SDS011;35476;52.466;13.364;2022-11-15T07:04:10;91.37;;;52.93;;
49572;SDS011;35476;52.466;13.364;2022-11-15T07:06:35;99.57;;;54.33;;
49572;SDS011;35476;52.466;13.364;2022-11-15T07:09:02;95.63;;;52.28;;
49572;SDS011;35476;52.466;13.364;2022-11-15T07:11:27;95.72;;;51.60;;
49572;SDS011;35476;52.466;13.364;2022-11-15T07:13:52;89.85;;;53.00;;
49572;SDS011;35476;52.466;13.364;2022-11-15T07:16:17;100.70;;;54.77;;
49572;SDS011;35476;52.466;13.364;2022-11-15T07:18:43;99.72;;;54.35;;
49572;SDS011;35476;52.466;13.364;2022-11-15T07:21:09;94.20;;;54.37;;
49572;SDS011;35476;52.466;13.364;2022-11-15T07:23:38;90.88;;;53.63;;
49572;SDS011;35476;52.466;13.364;2022-11-15T07:26:03;84.22;;;51.72;;
49572;SDS011;35476;52.466;13.364;2022-11-15T07:28:29;86.63;;;54.17;;
49572;SDS011;35476;52.466;13.364;2022-11-15T07:30:54;90.13;;;53.27;;
49572;SDS011;35476;52.466;13.364;2022-11-15T07:33:19;90.35;;;51.03;;
49572;SDS011;35476;52.466;13.364;2022-11-15T07:35:45;86.05;;;51.47;;
49572;SDS011;35476;52.466;13.364;2022-11-15T07:38:13;89.55;;;53.45;;
49572;SDS011;35476;52.466;13.364;2022-11-15T07:40:39;98.18;;;55.22;;
49572;SDS011;35476;52.466;13.364;2022-11-15T07:43:05;93.15;;;55.03;;
49572;SDS011;35476;52.466;13.364;2022-11-15T07:45:31;89.85;;;52.38;;
49572;SDS011;35476;52.466;13.364;2022-11-15T07:47:58;88.60;;;53.40;;
49572;SDS011;35476;52.466;13.364;2022-11-15T07:50:23;87.47;;;51.20;;
49572;SDS011;35476;52.466;13.364;2022-11-15T07:52:55;86.32;;;54.72;;
49572;SDS011;35476;52.466;13.364;2022-11-15T07:55:21;87.45;;;50.28;;
49572;SDS011;35476;52.466;13.364;2022-11-15T07:57:47;80.55;;;49.50;;
49572;SDS011;35476;52.466;13.364;2022-11-15T08:00:12;84.35;;;51.28;;
49572;SDS011;35476;52.466;13.364;2022-11-15T08:02:38;79.35;;;52.13;;
49572;SDS011;35476;52.466;13.364;2022-11-15T08:05:03;86.10;;;53.33;;
49572;SDS011;35476;52.466;13.364;2022-11-15T08:07:29;79.15;;;50.53;;
49572;SDS011;35476;52.466;13.364;2022-11-15T08:09:55;86.40;;;51.67;;
49572;SDS011;35476;52.466;13.364;2022-11-15T08:12:21;86.65;;;53.35;;
49572;SDS011;35476;52.466;13.364;2022-11-15T08:14:46;85.03;;;50.15;;
49572;SDS011;35476;52.466;13.364;2022-11-15T08:17:11;80.33;;;50.40;;
49572;SDS011;35476;52.466;13.364;2022-11-15T08:19:36;83.83;;;49.83;;
49572;SDS011;35476;52.466;13.364;2022-11-15T08:22:01;72.50;;;46.60;;
49572;SDS011;35476;52.466;13.364;2022-11-15T08:24:27;64.43;;;46.30;;
49572;SDS011;35476;52.466;13.364;2022-11-15T08:26:52;54.93;;;40.43;;
49572;SDS011;35476;52.466;13.364;2022-11-15T08:29:17;64.83;;;47.47;;
49572;SDS011;35476;52.466;13.364;2022-11-15T08:31:42;97.30;;;60.00;;
49572;SDS011;35476;52.466;13.364;2022-11-15T08:34:07;117.33;;;70.30;;
49572;SDS011;35476;52.466;13.364;2022-11-15T08:36:33;102.95;;;66.30;;
49572;SDS011;35476;52.466;13.364;2022-11-15T08:38:58;88.75;;;58.90;;
49572;SDS011;35476;52.466;13.364;2022-11-15T08:43:49;56.57;;;41.30;;
49572;SDS011;35476;52.466;13.364;2022-11-15T08:46:14;39.93;;;34.30;;
49572;SDS011;35476;52.466;13.364;2022-11-15T08:48:39;34.35;;;27.90;;
49572;SDS011;35476;52.466;13.364;2022-11-15T08:51:04;29.10;;;26.10;;
49572;SDS011;35476;52.466;13.364;2022-11-15T08:53:30;29.85;;;24.30;;
49572;SDS011;35476;52.466;13.364;2022-11-15T08:55:55;30.90;;;24.08;;
49572;SDS011;35476;52.466;13.364;2022-11-15T08:58:20;27.93;;;22.00;;
49572;SDS011;35476;52.466;13.364;2022-11-15T09:00:45;26.77;;;22.20;;
49572;SDS011;35476;52.466;13.364;2022-11-15T09:03:10;29.80;;;22.55;;
49572;SDS011;35476;52.466;13.364;2022-11-15T09:05:36;25.23;;;20.77;;
49572;SDS011;35476;52.466;13.364;2022-11-15T09:08:02;22.77;;;20.13;;
49572;SDS011;35476;52.466;13.364;2022-11-15T09:10:27;22.80;;;20.30;;
49572;SDS011;35476;52.466;13.364;2022-11-15T09:12:52;22.10;;;18.33;;
49572;SDS011;35476;52.466;13.364;2022-11-15T09:15:17;23.50;;;18.97;;
49572;SDS011;35476;52.466;13.364;2022-11-15T09:17:44;20.40;;;18.27;;
49572;SDS011;35476;52.466;13.364;2022-11-15T09:20:09;20.73;;;18.53;;
49572;SDS011;35476;52.466;13.364;2022-11-15T09:22:35;20.67;;;18.48;;
49572;SDS011;35476;52.466;13.364;2022-11-15T09:25:01;21.75;;;17.75;;
49572;SDS011;35476;52.466;13.364;2022-11-15T09:27:30;20.13;;;17.90;;
49572;SDS011;35476;52.466;13.364;2022-11-15T09:29:55;21.60;;;18.42;;
49572;SDS011;35476;52.466;13.364;2022-11-15T09:32:20;18.90;;;16.90;;
49572;SDS011;35476;52.466;13.364;2022-11-15T09:34:47;20.63;;;17.73;;
49572;SDS011;35476;52.466;13.364;2022-11-15T09:37:12;19.40;;;17.40;;
49572;SDS011;35476;52.466;13.364;2022-11-15T09:39:38;20.55;;;17.58;;
49572;SDS011;35476;52.466;13.364;2022-11-15T09:49:35;18.20;;;16.05;;
49572;SDS011;35476;52.466;13.364;2022-11-15T09:52:00;27.80;;;18.67;;
49572;SDS011;35476;52.466;13.364;2022-11-15T09:54:27;18.52;;;16.17;;
49572;SDS011;35476;52.466;13.364;2022-11-15T09:56:54;19.83;;;15.98;;
49572;SDS011;35476;52.466;13.364;2022-11-15T09:59:55;16.00;;;14.10;;
49572;SDS011;35476;52.466;13.364;2022-11-15T10:04:56;16.52;;;14.27;;
49572;SDS011;35476;52.466;13.364;2022-11-15T10:07:43;17.08;;;13.80;;
49572;SDS011;35476;52.466;13.364;2022-11-15T10:12:34;14.53;;;13.03;;
49572;SDS011;35476;52.466;13.364;2022-11-15T10:15:01;20.00;;;15.15;;
49572;SDS011;35476;52.466;13.364;2022-11-15T10:22:35;15.35;;;13.05;;
49572;SDS011;35476;52.466;13.364;2022-11-15T10:27:28;17.33;;;14.27;;
49572;SDS011;35476;52.466;13.364;2022-11-15T10:29:54;14.80;;;13.15;;
49572;SDS011;35476;52.466;13.364;2022-11-15T10:32:20;16.55;;;13.85;;
49572;SDS011;35476;52.466;13.364;2022-11-15T10:34:46;17.35;;;13.40;;
49572;SDS011;35476;52.466;13.364;2022-11-15T10:37:11;15.63;;;13.63;;
49572;SDS011;35476;52.466;13.364;2022-11-15T10:39:37;18.50;;;13.17;;
49572;SDS011;35476;52.466;13.364;2022-11-15T10:44:46;19.38;;;14.18;;
49572;SDS011;35476;52.466;13.364;2022-11-15T10:47:22;15.05;;;13.48;;
49572;SDS011;35476;52.466;13.364;2022-11-15T10:49:55;13.32;;;11.90;;
49572;SDS011;35476;52.466;13.364;2022-11-15T10:52:20;18.20;;;14.10;;
49572;SDS011;35476;52.466;13.364;2022-11-15T10:54:48;14.00;;;12.55;;
49572;SDS011;35476;52.466;13.364;2022-11-15T10:57:15;15.43;;;13.82;;
49572;SDS011;35476;52.466;13.364;2022-11-15T10:59:42;14.18;;;12.77;;
49572;SDS011;35476;52.466;13.364;2022-11-15T11:02:29;13.88;;;12.00;;
49572;SDS011;35476;52.466;13.364;2022-11-15T11:04:55;15.73;;;12.98;;
49572;SDS011;35476;52.466;13.364;2022-11-15T11:07:23;14.07;;;12.55;;
49572;SDS011;35476;52.466;13.364;2022-11-15T11:10:34;13.05;;;11.75;;
49572;SDS011;35476;52.466;13.364;2022-11-15T11:12:34;14.75;;;12.48;;
49572;SDS011;35476;52.466;13.364;2022-11-15T11:15:00;14.77;;;11.90;;
49572;SDS011;35476;52.466;13.364;2022-11-15T11:17:44;13.55;;;11.88;;
49572;SDS011;35476;52.466;13.364;2022-11-15T11:25:25;12.32;;;11.02;;
49572;SDS011;35476;52.466;13.364;2022-11-15T11:27:57;13.05;;;10.80;;
49572;SDS011;35476;52.466;13.364;2022-11-15T11:30:32;13.20;;;10.38;;
49572;SDS011;35476;52.466;13.364;2022-11-15T11:33:05;14.20;;;11.43;;
49572;SDS011;35476;52.466;13.364;2022-11-15T11:42:53;11.47;;;10.30;;
49572;SDS011;35476;52.466;13.364;2022-11-15T11:50:35;13.05;;;10.88;;
49572;SDS011;35476;52.466;13.364;2022-11-15T11:56:06;12.65;;;11.07;;
49572;SDS011;35476;52.466;13.364;2022-11-15T11:58:37;11.50;;;9.93;;
49572;SDS011;35476;52.466;13.364;2022-11-15T12:01:08;12.20;;;10.85;;
49572;SDS011;35476;52.466;13.364;2022-11-15T12:03:39;11.18;;;10.07;;
49572;SDS011;35476;52.466;13.364;2022-11-15T12:08:43;15.18;;;10.35;;
49572;SDS011;35476;52.466;13.364;2022-11-15T12:13:45;12.75;;;11.50;;
49572;SDS011;35476;52.466;13.364;2022-11-15T12:18:42;14.77;;;13.18;;
49572;SDS011;35476;52.466;13.364;2022-11-15T12:23:48;12.98;;;10.73;;
49572;SDS011;35476;52.466;13.364;2022-11-15T12:26:28;13.95;;;11.15;;
49572;SDS011;35476;52.466;13.364;2022-11-15T12:28:58;13.30;;;11.32;;
49572;SDS011;35476;52.466;13.364;2022-11-15T12:31:26;12.60;;;10.48;;
49572;SDS011;35476;52.466;13.364;2022-11-15T12:33:55;13.38;;;10.23;;
49572;SDS011;35476;52.466;13.364;2022-11-15T12:41:19;12.95;;;9.82;;
49572;SDS011;35476;52.466;13.364;2022-11-15T12:43:45;14.88;;;10.18;;
49572;SDS011;35476;52.466;13.364;2022-11-15T12:51:22;12.50;;;11.30;;
49572;SDS011;35476;52.466;13.364;2022-11-15T13:02:18;13.48;;;11.13;;
49572;SDS011;35476;52.466;13.364;2022-11-15T13:04:44;12.57;;;10.10;;
49572;SDS011;35476;52.466;13.364;2022-11-15T13:07:09;10.97;;;9.83;;
49572;SDS011;35476;52.466;13.364;2022-11-15T13:09:54;19.38;;;9.68;;
49572;SDS011;35476;52.466;13.364;2022-11-15T13:19:45;11.35;;;10.25;;
49572;SDS011;35476;52.466;13.364;2022-11-15T13:22:11;14.43;;;12.50;;
49572;SDS011;35476;52.466;13.364;2022-11-15T13:24:55;12.85;;;11.55;;
49572;SDS011;35476;52.466;13.364;2022-11-15T13:27:20;16.25;;;12.43;;
49572;SDS011;35476;52.466;13.364;2022-11-15T13:29:46;16.90;;;13.00;;
49572;SDS011;35476;52.466;13.364;2022-11-15T13:32:12;15.13;;;12.13;;
49572;SDS011;35476;52.466;13.364;2022-11-15T13:34:38;17.70;;;12.88;;
49572;SDS011;35476;52.466;13.364;2022-11-15T13:37:29;14.73;;;11.73;;
49572;SDS011;35476;52.466;13.364;2022-11-15T13:39:54;14.57;;;12.18;;
49572;SDS011;35476;52.466;13.364;2022-11-15T13:42:20;15.83;;;12.03;;
49572;SDS011;35476;52.466;13.364;2022-11-15T13:44:55;13.63;;;11.90;;
49572;SDS011;35476;52.466;13.364;2022-11-15T13:47:21;16.58;;;13.90;;
49572;SDS011;35476;52.466;13.364;2022-11-15T13:49:46;14.73;;;12.88;;
49572;SDS011;35476;52.466;13.364;2022-11-15T13:52:12;22.02;;;14.35;;
49572;SDS011;35476;52.466;13.364;2022-11-15T13:57:09;20.98;;;15.57;;
49572;SDS011;35476;52.466;13.364;2022-11-15T13:59:36;20.67;;;14.23;;
49572;SDS011;35476;52.466;13.364;2022-11-15T14:02:03;23.45;;;14.88;;
49572;SDS011;35476;52.466;13.364;2022-11-15T14:04:34;20.20;;;16.40;;
49572;SDS011;35476;52.466;13.364;2022-11-15T14:07:00;19.00;;;15.88;;
49572;SDS011;35476;52.466;13.364;2022-11-15T14:11:55;21.98;;;14.80;;
49572;SDS011;35476;52.466;13.364;2022-11-15T14:14:21;20.48;;;15.63;;
49572;SDS011;35476;52.466;13.364;2022-11-15T14:16:57;17.95;;;14.77;;
49572;SDS011;35476;52.466;13.364;2022-11-15T14:24:32;17.73;;;13.57;;
49572;SDS011;35476;52.466;13.364;2022-11-15T14:26:57;15.70;;;13.93;;
49572;SDS011;35476;52.466;13.364;2022-11-15T14:29:40;22.02;;;15.35;;
49572;SDS011;35476;52.466;13.364;2022-11-15T14:32:12;20.02;;;15.52;;
49572;SDS011;35476;52.466;13.364;2022-11-15T14:34:37;22.52;;;15.85;;
49572;SDS011;35476;52.466;13.364;2022-11-15T14:37:02;18.27;;;15.00;;
49572;SDS011;35476;52.466;13.364;2022-11-15T14:39:28;20.87;;;15.43;;
49572;SDS011;35476;52.466;13.364;2022-11-15T14:41:53;19.57;;;15.90;;
49572;SDS011;35476;52.466;13.364;2022-11-15T14:44:18;21.37;;;15.27;;
49572;SDS011;35476;52.466;13.364;2022-11-15T14:46:45;23.05;;;17.00;;
49572;SDS011;35476;52.466;13.364;2022-11-15T14:49:10;19.13;;;16.30;;
49572;SDS011;35476;52.466;13.364;2022-11-15T14:51:37;22.95;;;15.65;;
49572;SDS011;35476;52.466;13.364;2022-11-15T14:54:03;20.37;;;16.90;;
49572;SDS011;35476;52.466;13.364;2022-11-15T14:56:28;20.57;;;16.10;;
49572;SDS011;35476;52.466;13.364;2022-11-15T14:58:53;20.03;;;16.07;;
49572;SDS011;35476;52.466;13.364;2022-11-15T15:01:21;23.55;;;18.13;;
49572;SDS011;35476;52.466;13.364;2022-11-15T15:03:46;22.45;;;16.23;;
49572;SDS011;35476;52.466;13.364;2022-11-15T15:06:12;23.67;;;18.13;;
49572;SDS011;35476;52.466;13.364;2022-11-15T15:08:39;21.17;;;15.85;;
49572;SDS011;35476;52.466;13.364;2022-11-15T15:11:06;25.23;;;18.33;;
49572;SDS011;35476;52.466;13.364;2022-11-15T15:13:35;20.35;;;16.48;;
49572;SDS011;35476;52.466;13.364;2022-11-15T15:16:00;22.20;;;17.30;;
49572;SDS011;35476;52.466;13.364;2022-11-15T15:18:25;23.00;;;17.50;;
49572;SDS011;35476;52.466;13.364;2022-11-15T15:20:57;27.13;;;17.07;;
49572;SDS011;35476;52.466;13.364;2022-11-15T15:23:27;21.17;;;15.52;;
49572;SDS011;35476;52.466;13.364;2022-11-15T15:25:55;23.02;;;17.40;;
49572;SDS011;35476;52.466;13.364;2022-11-15T15:28:21;27.38;;;20.38;;
49572;SDS011;35476;52.466;13.364;2022-11-15T15:30:46;29.48;;;20.30;;
49572;SDS011;35476;52.466;13.364;2022-11-15T15:33:11;30.05;;;20.10;;
49572;SDS011;35476;52.466;13.364;2022-11-15T15:35:36;26.50;;;20.87;;
49572;SDS011;35476;52.466;13.364;2022-11-15T15:38:02;24.75;;;19.77;;
49572;SDS011;35476;52.466;13.364;2022-11-15T15:40:28;22.65;;;18.00;;
49572;SDS011;35476;52.466;13.364;2022-11-15T15:42:54;25.77;;;19.25;;
49572;SDS011;35476;52.466;13.364;2022-11-15T15:45:19;24.77;;;19.80;;
49572;SDS011;35476;52.466;13.364;2022-11-15T15:47:45;29.08;;;19.73;;
49572;SDS011;35476;52.466;13.364;2022-11-15T15:50:24;26.38;;;21.15;;
49572;SDS011;35476;52.466;13.364;2022-11-15T15:52:50;35.33;;;22.20;;
49572;SDS011;35476;52.466;13.364;2022-11-15T15:55:15;32.60;;;22.02;;
49572;SDS011;35476;52.466;13.364;2022-11-15T15:57:40;30.85;;;24.20;;
49572;SDS011;35476;52.466;13.364;2022-11-15T16:00:06;33.03;;;24.30;;
49572;SDS011;35476;52.466;13.364;2022-11-15T16:02:31;30.88;;;22.48;;
49572;SDS011;35476;52.466;13.364;2022-11-15T16:04:56;29.13;;;21.87;;
49572;SDS011;35476;52.466;13.364;2022-11-15T16:07:22;35.35;;;23.52;;
49572;SDS011;35476;52.466;13.364;2022-11-15T16:09:53;24.95;;;21.85;;